sensor_id;sensor_type;location;lat;lon;timestamp;pressure;altitude;pressure_sealevel;temperature;humidity
30021;BME280;16861;52.294;7.760;2022-08-19T00:01:57;99601.50;;;21.63;57.78
30021;BME280;16861;52.294;7.760;2022-08-19T00:04:29;99606.19;;;21.60;58.07
30021;BME280;16861;52.294;7.760;2022-08-19T00:06:57;99613.38;;;21.60;57.86
30021;BME280;16861;52.294;7.760;2022-08-19T00:09:24;99609.88;;;21.59;58.06
30021;BME280;16861;52.294;7.760;2022-08-19T00:11:52;99610.88;;;21.58;57.82
30021;BME280;16861;52.294;7.760;2022-08-19T00:14:19;99597.66;;;21.57;57.92
30021;BME280;16861;52.294;7.760;2022-08-19T00:16:47;99607.50;;;21.56;57.88
30021;BME280;16861;52.294;7.760;2022-08-19T00:19:15;99610.19;;;21.56;57.95
30021;BME280;16861;52.294;7.760;2022-08-19T00:21:43;99608.66;;;21.54;57.68
30021;BME280;16861;52.294;7.760;2022-08-19T00:24:11;99609.69;;;21.53;58.32
30021;BME280;16861;52.294;7.760;2022-08-19T00:26:39;99611.50;;;21.52;57.95
30021;BME280;16861;52.294;7.760;2022-08-19T00:29:12;99616.38;;;21.48;58.52
30021;BME280;16861;52.294;7.760;2022-08-19T00:31:40;99610.00;;;21.50;58.04
30021;BME280;16861;52.294;7.760;2022-08-19T00:34:09;99608.50;;;21.47;57.88
30021;BME280;16861;52.294;7.760;2022-08-19T00:36:38;99606.13;;;21.44;57.86
30021;BME280;16861;52.294;7.760;2022-08-19T00:39:05;99607.44;;;21.40;57.86
30021;BME280;16861;52.294;7.760;2022-08-19T00:41:32;99601.75;;;21.34;57.80
30021;BME280;16861;52.294;7.760;2022-08-19T00:44:02;99603.22;;;21.29;57.88
30021;BME280;16861;52.294;7.760;2022-08-19T00:46:30;99614.44;;;21.24;57.99
30021;BME280;16861;52.294;7.760;2022-08-19T00:48:58;99608.88;;;21.17;58.23
30021;BME280;16861;52.294;7.760;2022-08-19T00:51:27;99608.50;;;21.12;58.38
30021;BME280;16861;52.294;7.760;2022-08-19T00:53:57;99603.66;;;21.07;58.82
30021;BME280;16861;52.294;7.760;2022-08-19T00:56:25;99601.13;;;21.06;58.90
30021;BME280;16861;52.294;7.760;2022-08-19T00:58:54;99608.31;;;21.05;58.86
30021;BME280;16861;52.294;7.760;2022-08-19T01:01:22;99604.81;;;21.05;58.74
30021;BME280;16861;52.294;7.760;2022-08-19T01:03:49;99594.25;;;21.03;58.75
30021;BME280;16861;52.294;7.760;2022-08-19T01:06:25;99601.59;;;21.01;58.35
30021;BME280;16861;52.294;7.760;2022-08-19T01:08:53;99591.91;;;21.00;58.59
30021;BME280;16861;52.294;7.760;2022-08-19T01:11:19;99594.72;;;20.99;58.52
30021;BME280;16861;52.294;7.760;2022-08-19T01:13:46;99588.72;;;20.96;58.68
30021;BME280;16861;52.294;7.760;2022-08-19T01:16:16;99585.34;;;20.94;58.92
30021;BME280;16861;52.294;7.760;2022-08-19T01:18:44;99583.81;;;20.92;58.94
30021;BME280;16861;52.294;7.760;2022-08-19T01:21:18;99589.69;;;20.87;59.30
30021;BME280;16861;52.294;7.760;2022-08-19T01:23:48;99588.78;;;20.87;58.66
30021;BME280;16861;52.294;7.760;2022-08-19T01:26:18;99590.09;;;20.82;59.12
30021;BME280;16861;52.294;7.760;2022-08-19T01:28:47;99585.91;;;20.80;59.01
30021;BME280;16861;52.294;7.760;2022-08-19T01:31:21;99578.34;;;20.75;59.11
30021;BME280;16861;52.294;7.760;2022-08-19T01:33:54;99566.31;;;20.71;59.08
30021;BME280;16861;52.294;7.760;2022-08-19T01:36:26;99571.13;;;20.67;59.58
30021;BME280;16861;52.294;7.760;2022-08-19T01:38:53;99565.13;;;20.65;59.04
30021;BME280;16861;52.294;7.760;2022-08-19T01:41:20;99564.56;;;20.62;59.17
30021;BME280;16861;52.294;7.760;2022-08-19T01:43:50;99568.25;;;20.61;59.21
30021;BME280;16861;52.294;7.760;2022-08-19T01:46:38;99572.09;;;20.58;59.16
30021;BME280;16861;52.294;7.760;2022-08-19T01:49:06;99569.72;;;20.55;59.31
30021;BME280;16861;52.294;7.760;2022-08-19T01:51:32;99573.53;;;20.52;59.07
30021;BME280;16861;52.294;7.760;2022-08-19T01:54:06;99577.38;;;20.50;59.13
30021;BME280;16861;52.294;7.760;2022-08-19T01:56:32;99571.34;;;20.48;59.14
30021;BME280;16861;52.294;7.760;2022-08-19T01:59:03;99577.69;;;20.47;59.43
30021;BME280;16861;52.294;7.760;2022-08-19T02:01:31;99570.50;;;20.47;59.21
30021;BME280;16861;52.294;7.760;2022-08-19T02:03:59;99569.66;;;20.47;59.00
30021;BME280;16861;52.294;7.760;2022-08-19T02:06:27;99566.97;;;20.47;58.91
30021;BME280;16861;52.294;7.760;2022-08-19T02:08:55;99566.16;;;20.46;59.17
30021;BME280;16861;52.294;7.760;2022-08-19T02:11:29;99569.84;;;20.45;58.67
30021;BME280;16861;52.294;7.760;2022-08-19T02:13:58;99573.69;;;20.51;58.40
30021;BME280;16861;52.294;7.760;2022-08-19T02:16:25;99567.69;;;20.49;58.40
30021;BME280;16861;52.294;7.760;2022-08-19T02:18:52;99560.13;;;20.44;58.76
30021;BME280;16861;52.294;7.760;2022-08-19T02:21:20;99568.28;;;20.42;58.71
30021;BME280;16861;52.294;7.760;2022-08-19T02:23:49;99560.44;;;20.41;58.92
30021;BME280;16861;52.294;7.760;2022-08-19T02:26:16;99567.78;;;20.39;59.35
30021;BME280;16861;52.294;7.760;2022-08-19T02:28:44;99564.28;;;20.38;59.07
30021;BME280;16861;52.294;7.760;2022-08-19T02:31:13;99566.09;;;20.38;59.20
30021;BME280;16861;52.294;7.760;2022-08-19T02:33:44;99573.28;;;20.37;59.17
30021;BME280;16861;52.294;7.760;2022-08-19T02:36:12;99560.75;;;20.38;59.86
30021;BME280;16861;52.294;7.760;2022-08-19T02:38:40;99557.94;;;20.39;59.28
30021;BME280;16861;52.294;7.760;2022-08-19T02:41:12;99557.38;;;20.36;59.56
30021;BME280;16861;52.294;7.760;2022-08-19T02:43:40;99551.75;;;20.39;59.31
30021;BME280;16861;52.294;7.760;2022-08-19T02:46:29;99545.56;;;20.38;59.15
30021;BME280;16861;52.294;7.760;2022-08-19T02:49:00;99551.88;;;20.37;59.18
30021;BME280;16861;52.294;7.760;2022-08-19T02:51:38;99552.03;;;20.36;59.33
30021;BME280;16861;52.294;7.760;2022-08-19T02:54:07;99549.56;;;20.34;59.46
30021;BME280;16861;52.294;7.760;2022-08-19T02:56:36;99546.03;;;20.34;59.22
30021;BME280;16861;52.294;7.760;2022-08-19T02:59:05;99547.84;;;20.33;59.38
30021;BME280;16861;52.294;7.760;2022-08-19T03:01:39;99548.84;;;20.32;59.43
30021;BME280;16861;52.294;7.760;2022-08-19T03:04:11;99542.13;;;20.28;60.06
30021;BME280;16861;52.294;7.760;2022-08-19T03:06:40;99537.78;;;20.27;60.06
30021;BME280;16861;52.294;7.760;2022-08-19T03:09:09;99531.75;;;20.25;60.11
30021;BME280;16861;52.294;7.760;2022-08-19T03:11:36;99532.75;;;20.24;60.10
30021;BME280;16861;52.294;7.760;2022-08-19T03:14:04;99530.22;;;20.22;60.29
30021;BME280;16861;52.294;7.760;2022-08-19T03:16:36;99532.25;;;20.20;60.28
30021;BME280;16861;52.294;7.760;2022-08-19T03:19:05;99534.91;;;20.20;59.92
30021;BME280;16861;52.294;7.760;2022-08-19T03:21:33;99534.22;;;20.18;60.36
30021;BME280;16861;52.294;7.760;2022-08-19T03:24:03;99526.38;;;20.16;61.11
30021;BME280;16861;52.294;7.760;2022-08-19T03:26:29;99529.72;;;20.18;60.31
30021;BME280;16861;52.294;7.760;2022-08-19T03:28:56;99532.38;;;20.18;60.58
30021;BME280;16861;52.294;7.760;2022-08-19T03:31:25;99530.56;;;20.19;60.43
30021;BME280;16861;52.294;7.760;2022-08-19T03:34:15;99526.91;;;20.20;60.38
30021;BME280;16861;52.294;7.760;2022-08-19T03:36:44;99532.09;;;20.22;60.62
30021;BME280;16861;52.294;7.760;2022-08-19T03:39:12;99534.75;;;20.22;60.35
30021;BME280;16861;52.294;7.760;2022-08-19T03:41:41;99540.09;;;20.22;60.13
30021;BME280;16861;52.294;7.760;2022-08-19T03:44:10;99540.09;;;20.22;59.97
30021;BME280;16861;52.294;7.760;2022-08-19T03:46:43;99553.63;;;20.20;59.51
30021;BME280;16861;52.294;7.760;2022-08-19T03:49:10;99548.63;;;20.25;59.75
30021;BME280;16861;52.294;7.760;2022-08-19T03:51:41;99557.81;;;20.23;59.73
30021;BME280;16861;52.294;7.760;2022-08-19T03:54:10;99557.09;;;20.21;60.28
30021;BME280;16861;52.294;7.760;2022-08-19T03:56:39;99557.28;;;20.19;60.46
30021;BME280;16861;52.294;7.760;2022-08-19T03:59:08;99558.44;;;20.16;60.72
30021;BME280;16861;52.294;7.760;2022-08-19T04:01:37;99560.94;;;20.18;60.95
30021;BME280;16861;52.294;7.760;2022-08-19T04:04:03;99556.44;;;20.18;61.00
30021;BME280;16861;52.294;7.760;2022-08-19T04:06:32;99559.13;;;20.18;61.21
30021;BME280;16861;52.294;7.760;2022-08-19T04:09:06;99559.25;;;20.17;61.61
30021;BME280;16861;52.294;7.760;2022-08-19T04:11:36;99552.75;;;20.20;61.30
30021;BME280;16861;52.294;7.760;2022-08-19T04:14:11;99559.78;;;20.21;61.02
30021;BME280;16861;52.294;7.760;2022-08-19T04:16:38;99560.78;;;20.20;60.64
30021;BME280;16861;52.294;7.760;2022-08-19T04:19:05;99563.59;;;20.18;60.67
30021;BME280;16861;52.294;7.760;2022-08-19T04:21:33;99561.13;;;20.16;60.97
30021;BME280;16861;52.294;7.760;2022-08-19T04:24:00;99564.09;;;20.13;61.29
30021;BME280;16861;52.294;7.760;2022-08-19T04:26:32;99567.91;;;20.11;61.72
30021;BME280;16861;52.294;7.760;2022-08-19T04:29:04;99564.53;;;20.09;61.62
30021;BME280;16861;52.294;7.760;2022-08-19T04:31:35;99577.91;;;20.09;61.58
30021;BME280;16861;52.294;7.760;2022-08-19T04:34:05;99575.38;;;20.07;62.32
30021;BME280;16861;52.294;7.760;2022-08-19T04:36:34;99567.34;;;20.07;62.25
30021;BME280;16861;52.294;7.760;2022-08-19T04:39:10;99566.69;;;20.05;62.57
30021;BME280;16861;52.294;7.760;2022-08-19T04:41:37;99562.19;;;20.05;61.82
30021;BME280;16861;52.294;7.760;2022-08-19T04:44:22;99567.34;;;20.07;61.90
30021;BME280;16861;52.294;7.760;2022-08-19T04:46:50;99564.69;;;20.07;62.00
30021;BME280;16861;52.294;7.760;2022-08-19T04:49:22;99557.81;;;20.04;62.56
30021;BME280;16861;52.294;7.760;2022-08-19T04:51:50;99559.34;;;20.07;62.06
30021;BME280;16861;52.294;7.760;2022-08-19T04:54:18;99562.72;;;20.09;61.96
30021;BME280;16861;52.294;7.760;2022-08-19T04:57:06;99567.06;;;20.10;61.91
30021;BME280;16861;52.294;7.760;2022-08-19T04:59:36;99571.41;;;20.11;61.94
30021;BME280;16861;52.294;7.760;2022-08-19T05:02:03;99580.13;;;20.13;62.22
30021;BME280;16861;52.294;7.760;2022-08-19T05:04:30;99577.44;;;20.13;62.09
30021;BME280;16861;52.294;7.760;2022-08-19T05:06:59;99579.81;;;20.16;62.44
30021;BME280;16861;52.294;7.760;2022-08-19T05:09:28;99580.50;;;20.18;62.71
30021;BME280;16861;52.294;7.760;2022-08-19T05:12:15;99574.00;;;20.21;62.58
30021;BME280;16861;52.294;7.760;2022-08-19T05:14:42;99582.53;;;20.25;62.44
30021;BME280;16861;52.294;7.760;2022-08-19T05:17:09;99585.06;;;20.26;62.56
30021;BME280;16861;52.294;7.760;2022-08-19T05:19:53;99587.44;;;20.29;62.62
30021;BME280;16861;52.294;7.760;2022-08-19T05:22:38;99584.44;;;20.33;62.96
30021;BME280;16861;52.294;7.760;2022-08-19T05:25:09;99582.44;;;20.35;63.34
30021;BME280;16861;52.294;7.760;2022-08-19T05:27:40;99580.13;;;20.40;62.94
30021;BME280;16861;52.294;7.760;2022-08-19T05:30:08;99590.53;;;20.43;63.01
30021;BME280;16861;52.294;7.760;2022-08-19T05:32:35;99585.53;;;20.48;62.83
30021;BME280;16861;52.294;7.760;2022-08-19T05:35:03;99593.09;;;20.53;63.09
30021;BME280;16861;52.294;7.760;2022-08-19T05:37:29;99592.81;;;20.56;63.22
30021;BME280;16861;52.294;7.760;2022-08-19T05:39:56;99596.00;;;20.60;62.82
30021;BME280;16861;52.294;7.760;2022-08-19T05:42:23;99589.34;;;20.64;63.27
30021;BME280;16861;52.294;7.760;2022-08-19T05:44:50;99589.84;;;20.67;63.23
30021;BME280;16861;52.294;7.760;2022-08-19T05:47:18;99588.53;;;20.72;63.61
30021;BME280;16861;52.294;7.760;2022-08-19T05:49:47;99574.72;;;20.76;63.51
30021;BME280;16861;52.294;7.760;2022-08-19T05:52:15;99584.91;;;20.81;63.69
30021;BME280;16861;52.294;7.760;2022-08-19T05:54:44;99580.75;;;20.87;63.59
30021;BME280;16861;52.294;7.760;2022-08-19T05:57:18;99588.22;;;20.93;63.54
30021;BME280;16861;52.294;7.760;2022-08-19T05:59:45;99575.84;;;21.00;63.56
30021;BME280;16861;52.294;7.760;2022-08-19T06:02:18;99584.22;;;21.05;63.40
30021;BME280;16861;52.294;7.760;2022-08-19T06:04:45;99577.41;;;21.11;63.30
30021;BME280;16861;52.294;7.760;2022-08-19T06:07:12;99579.44;;;21.17;63.44
30021;BME280;16861;52.294;7.760;2022-08-19T06:09:40;99575.44;;;21.21;63.44
30021;BME280;16861;52.294;7.760;2022-08-19T06:12:09;99579.13;;;21.29;63.32
30021;BME280;16861;52.294;7.760;2022-08-19T06:14:35;99582.16;;;21.34;63.45
30021;BME280;16861;52.294;7.760;2022-08-19T06:17:06;99581.53;;;21.40;63.30
30021;BME280;16861;52.294;7.760;2022-08-19T06:19:33;99581.88;;;21.45;63.10
30021;BME280;16861;52.294;7.760;2022-08-19T06:22:06;99590.09;;;21.52;63.21
30021;BME280;16861;52.294;7.760;2022-08-19T06:24:32;99591.44;;;21.56;62.94
30021;BME280;16861;52.294;7.760;2022-08-19T06:26:59;99588.13;;;21.63;63.04
30021;BME280;16861;52.294;7.760;2022-08-19T06:29:28;99577.91;;;21.66;63.30
30021;BME280;16861;52.294;7.760;2022-08-19T06:31:58;99579.25;;;21.70;62.86
30021;BME280;16861;52.294;7.760;2022-08-19T06:34:27;99583.31;;;21.74;62.95
30021;BME280;16861;52.294;7.760;2022-08-19T06:36:55;99589.84;;;21.80;62.75
30021;BME280;16861;52.294;7.760;2022-08-19T06:39:27;99581.63;;;21.82;62.97
30021;BME280;16861;52.294;7.760;2022-08-19T06:41:58;99572.09;;;21.87;62.86
30021;BME280;16861;52.294;7.760;2022-08-19T06:44:27;99569.09;;;21.91;62.48
30021;BME280;16861;52.294;7.760;2022-08-19T06:46:55;99567.75;;;21.95;62.34
30021;BME280;16861;52.294;7.760;2022-08-19T06:49:23;99568.25;;;21.98;62.21
30021;BME280;16861;52.294;7.760;2022-08-19T06:51:50;99564.41;;;22.01;62.31
30021;BME280;16861;52.294;7.760;2022-08-19T06:54:18;99565.91;;;22.04;62.34
30021;BME280;16861;52.294;7.760;2022-08-19T06:56:46;99557.38;;;22.08;62.11
30021;BME280;16861;52.294;7.760;2022-08-19T06:59:17;99569.44;;;22.12;62.21
30021;BME280;16861;52.294;7.760;2022-08-19T07:01:46;99570.78;;;22.17;62.03
30021;BME280;16861;52.294;7.760;2022-08-19T07:04:16;99569.28;;;22.22;62.27
30021;BME280;16861;52.294;7.760;2022-08-19T07:06:44;99565.09;;;22.28;62.36
30021;BME280;16861;52.294;7.760;2022-08-19T07:09:20;99574.44;;;22.32;62.13
30021;BME280;16861;52.294;7.760;2022-08-19T07:11:48;99562.19;;;22.38;62.16
30021;BME280;16861;52.294;7.760;2022-08-19T07:14:18;99565.19;;;22.43;62.21
30021;BME280;16861;52.294;7.760;2022-08-19T07:16:47;99561.16;;;22.47;62.03
30021;BME280;16861;52.294;7.760;2022-08-19T07:19:15;99568.56;;;22.54;62.20
30021;BME280;16861;52.294;7.760;2022-08-19T07:21:45;99579.63;;;22.59;61.67
30021;BME280;16861;52.294;7.760;2022-08-19T07:24:12;99571.91;;;22.64;61.55
30021;BME280;16861;52.294;7.760;2022-08-19T07:26:41;99580.28;;;22.69;61.52
30021;BME280;16861;52.294;7.760;2022-08-19T07:29:09;99584.97;;;22.75;61.27
30021;BME280;16861;52.294;7.760;2022-08-19T07:31:37;99582.59;;;22.81;61.33
30021;BME280;16861;52.294;7.760;2022-08-19T07:34:06;99582.91;;;22.86;61.15
30021;BME280;16861;52.294;7.760;2022-08-19T07:36:35;99591.13;;;22.93;61.05
30021;BME280;16861;52.294;7.760;2022-08-19T07:39:06;99594.97;;;22.98;61.27
30021;BME280;16861;52.294;7.760;2022-08-19T07:41:35;99599.44;;;23.06;60.98
30021;BME280;16861;52.294;7.760;2022-08-19T07:44:04;99589.88;;;23.12;60.83
30021;BME280;16861;52.294;7.760;2022-08-19T07:46:31;99594.56;;;23.18;60.76
30021;BME280;16861;52.294;7.760;2022-08-19T07:48:59;99594.88;;;23.23;60.22
30021;BME280;16861;52.294;7.760;2022-08-19T07:51:27;99596.19;;;23.27;60.25
30021;BME280;16861;52.294;7.760;2022-08-19T07:54:01;99597.34;;;23.33;60.38
30021;BME280;16861;52.294;7.760;2022-08-19T07:56:28;99615.63;;;23.38;59.98
30021;BME280;16861;52.294;7.760;2022-08-19T07:58:55;99617.63;;;23.44;60.03
30021;BME280;16861;52.294;7.760;2022-08-19T08:01:27;99620.63;;;23.49;60.27
30021;BME280;16861;52.294;7.760;2022-08-19T08:03:56;99618.91;;;23.56;59.99
30021;BME280;16861;52.294;7.760;2022-08-19T08:06:41;99623.41;;;23.64;60.01
30021;BME280;16861;52.294;7.760;2022-08-19T08:09:32;99623.53;;;23.71;59.30
30021;BME280;16861;52.294;7.760;2022-08-19T08:12:06;99623.50;;;23.79;59.47
30021;BME280;16861;52.294;7.760;2022-08-19T08:14:59;99620.75;;;23.88;58.96
30021;BME280;16861;52.294;7.760;2022-08-19T08:17:29;99621.50;;;23.97;58.83
30021;BME280;16861;52.294;7.760;2022-08-19T08:20:15;99625.00;;;24.05;58.89
30021;BME280;16861;52.294;7.760;2022-08-19T08:22:43;99629.50;;;24.13;59.35
30021;BME280;16861;52.294;7.760;2022-08-19T08:25:29;99625.72;;;24.23;59.16
30021;BME280;16861;52.294;7.760;2022-08-19T08:27:59;99630.00;;;24.32;58.88
30021;BME280;16861;52.294;7.760;2022-08-19T08:30:27;99638.88;;;24.41;58.43
30021;BME280;16861;52.294;7.760;2022-08-19T08:32:56;99641.09;;;24.52;58.23
30021;BME280;16861;52.294;7.760;2022-08-19T08:35:23;99631.97;;;24.62;58.05
30021;BME280;16861;52.294;7.760;2022-08-19T08:37:52;99640.78;;;24.70;57.79
30021;BME280;16861;52.294;7.760;2022-08-19T08:43:07;99651.59;;;24.85;56.80
30021;BME280;16861;52.294;7.760;2022-08-19T08:51:48;99650.03;;;25.21;56.29
30021;BME280;16861;52.294;7.760;2022-08-19T08:54:33;99650.38;;;25.33;55.81
30021;BME280;16861;52.294;7.760;2022-08-19T08:57:04;99652.63;;;25.45;55.34
30021;BME280;16861;52.294;7.760;2022-08-19T08:59:35;99650.44;;;25.55;56.46
30021;BME280;16861;52.294;7.760;2022-08-19T09:02:03;99643.00;;;25.72;55.79
30021;BME280;16861;52.294;7.760;2022-08-19T09:04:30;99643.53;;;25.83;54.97
30021;BME280;16861;52.294;7.760;2022-08-19T09:07:22;99642.94;;;25.87;55.04
30021;BME280;16861;52.294;7.760;2022-08-19T09:15:13;99646.81;;;26.22;53.76
30021;BME280;16861;52.294;7.760;2022-08-19T09:17:40;99647.38;;;26.32;53.49
30021;BME280;16861;52.294;7.760;2022-08-19T09:22:40;99645.03;;;26.51;52.26
30021;BME280;16861;52.294;7.760;2022-08-19T09:25:14;99642.81;;;26.61;50.87
30021;BME280;16861;52.294;7.760;2022-08-19T09:27:41;99646.84;;;26.72;51.76
30021;BME280;16861;52.294;7.760;2022-08-19T09:30:16;99641.53;;;26.86;51.02
30021;BME280;16861;52.294;7.760;2022-08-19T09:32:44;99651.22;;;27.02;51.40
30021;BME280;16861;52.294;7.760;2022-08-19T09:35:12;99653.81;;;27.17;50.61
30021;BME280;16861;52.294;7.760;2022-08-19T09:37:39;99645.75;;;27.30;50.13
30021;BME280;16861;52.294;7.760;2022-08-19T09:40:08;99635.22;;;27.42;49.68
30021;BME280;16861;52.294;7.760;2022-08-19T09:42:37;99642.94;;;27.52;49.02
30021;BME280;16861;52.294;7.760;2022-08-19T09:45:18;99642.31;;;27.57;48.92
30021;BME280;16861;52.294;7.760;2022-08-19T09:47:47;99641.94;;;27.60;48.34
30021;BME280;16861;52.294;7.760;2022-08-19T09:50:14;99643.97;;;27.58;48.21
30021;BME280;16861;52.294;7.760;2022-08-19T09:52:42;99646.91;;;27.56;49.07
30021;BME280;16861;52.294;7.760;2022-08-19T09:55:23;99642.31;;;27.57;48.89
30021;BME280;16861;52.294;7.760;2022-08-19T09:58:01;99641.06;;;27.60;49.44
30021;BME280;16861;52.294;7.760;2022-08-19T10:00:29;99641.97;;;27.67;49.29
30021;BME280;16861;52.294;7.760;2022-08-19T10:02:57;99639.91;;;27.76;48.85
30021;BME280;16861;52.294;7.760;2022-08-19T10:05:24;99638.69;;;27.85;48.46
30021;BME280;16861;52.294;7.760;2022-08-19T10:08:10;99635.81;;;27.93;48.29
30021;BME280;16861;52.294;7.760;2022-08-19T10:10:40;99640.38;;;28.00;47.53
30021;BME280;16861;52.294;7.760;2022-08-19T10:13:14;99634.56;;;28.03;47.30
30021;BME280;16861;52.294;7.760;2022-08-19T10:15:41;99633.53;;;28.04;47.07
30021;BME280;16861;52.294;7.760;2022-08-19T10:18:14;99636.44;;;28.02;47.31
30021;BME280;16861;52.294;7.760;2022-08-19T10:20:42;99642.88;;;28.01;46.57
30021;BME280;16861;52.294;7.760;2022-08-19T10:23:09;99635.59;;;28.02;46.43
30021;BME280;16861;52.294;7.760;2022-08-19T10:25:36;99636.44;;;28.02;46.57
30021;BME280;16861;52.294;7.760;2022-08-19T10:28:04;99633.31;;;28.05;46.82
30021;BME280;16861;52.294;7.760;2022-08-19T10:30:36;99637.28;;;28.09;46.56
30021;BME280;16861;52.294;7.760;2022-08-19T10:33:03;99632.50;;;28.12;46.59
30021;BME280;16861;52.294;7.760;2022-08-19T10:35:36;99634.16;;;28.13;46.13
30021;BME280;16861;52.294;7.760;2022-08-19T10:38:22;99635.84;;;28.14;46.49
30021;BME280;16861;52.294;7.760;2022-08-19T10:40:58;99630.22;;;28.15;46.33
30021;BME280;16861;52.294;7.760;2022-08-19T10:43:33;99628.75;;;28.19;46.36
30021;BME280;16861;52.294;7.760;2022-08-19T10:46:06;99633.94;;;28.21;46.67
30021;BME280;16861;52.294;7.760;2022-08-19T10:48:42;99621.88;;;28.23;46.84
30021;BME280;16861;52.294;7.760;2022-08-19T10:51:10;99624.19;;;28.27;46.79
30021;BME280;16861;52.294;7.760;2022-08-19T10:53:55;99624.19;;;28.33;47.37
30021;BME280;16861;52.294;7.760;2022-08-19T10:56:22;99627.09;;;28.45;48.69
30021;BME280;16861;52.294;7.760;2022-08-19T10:59:08;99615.22;;;28.67;49.04
30021;BME280;16861;52.294;7.760;2022-08-19T11:01:35;99618.75;;;28.94;48.59
30021;BME280;16861;52.294;7.760;2022-08-19T11:04:03;99619.47;;;29.29;47.15
30021;BME280;16861;52.294;7.760;2022-08-19T11:06:33;99615.75;;;29.69;45.89
30021;BME280;16861;52.294;7.760;2022-08-19T11:09:04;99613.19;;;30.13;44.46
30021;BME280;16861;52.294;7.760;2022-08-19T11:11:31;99614.97;;;30.51;44.25
30021;BME280;16861;52.294;7.760;2022-08-19T11:14:13;99620.75;;;30.80;42.27
30021;BME280;16861;52.294;7.760;2022-08-19T11:16:41;99616.38;;;30.98;41.52
30021;BME280;16861;52.294;7.760;2022-08-19T11:19:10;99615.94;;;31.01;41.29
30021;BME280;16861;52.294;7.760;2022-08-19T11:21:42;99610.72;;;31.00;39.30
30021;BME280;16861;52.294;7.760;2022-08-19T11:24:12;99610.63;;;31.06;39.82
30021;BME280;16861;52.294;7.760;2022-08-19T11:26:42;99616.91;;;31.26;41.52
30021;BME280;16861;52.294;7.760;2022-08-19T11:29:10;99611.28;;;31.58;40.93
30021;BME280;16861;52.294;7.760;2022-08-19T11:31:40;99602.91;;;32.02;41.48
30021;BME280;16861;52.294;7.760;2022-08-19T11:34:10;99603.09;;;32.55;40.83
30021;BME280;16861;52.294;7.760;2022-08-19T11:36:39;99595.56;;;33.10;38.88
30021;BME280;16861;52.294;7.760;2022-08-19T11:39:08;99586.03;;;33.54;37.49
30021;BME280;16861;52.294;7.760;2022-08-19T11:41:35;99589.09;;;33.87;37.57
30021;BME280;16861;52.294;7.760;2022-08-19T11:44:02;99582.19;;;34.13;36.97
30021;BME280;16861;52.294;7.760;2022-08-19T11:46:29;99589.44;;;34.42;36.00
30021;BME280;16861;52.294;7.760;2022-08-19T11:48:59;99584.69;;;34.72;34.03
30021;BME280;16861;52.294;7.760;2022-08-19T11:51:27;99586.28;;;35.12;36.13
30021;BME280;16861;52.294;7.760;2022-08-19T11:53:55;99585.06;;;35.53;35.30
30021;BME280;16861;52.294;7.760;2022-08-19T11:56:23;99577.28;;;35.94;34.29
30021;BME280;16861;52.294;7.760;2022-08-19T11:58:51;99575.41;;;36.38;34.14
30021;BME280;16861;52.294;7.760;2022-08-19T12:01:19;99581.69;;;36.82;33.34
30021;BME280;16861;52.294;7.760;2022-08-19T12:03:49;99576.66;;;37.22;32.17
30021;BME280;16861;52.294;7.760;2022-08-19T12:06:20;99574.25;;;37.57;31.26
30021;BME280;16861;52.294;7.760;2022-08-19T12:08:50;99580.59;;;37.88;30.92
30021;BME280;16861;52.294;7.760;2022-08-19T12:11:16;99567.16;;;38.13;30.10
30021;BME280;16861;52.294;7.760;2022-08-19T12:13:43;99570.41;;;38.36;30.36
30021;BME280;16861;52.294;7.760;2022-08-19T12:16:20;99565.97;;;38.55;29.75
30021;BME280;16861;52.294;7.760;2022-08-19T12:18:48;99568.94;;;38.75;28.83
30021;BME280;16861;52.294;7.760;2022-08-19T12:21:20;99567.50;;;38.88;28.29
30021;BME280;16861;52.294;7.760;2022-08-19T12:23:49;99571.59;;;38.95;28.81
30021;BME280;16861;52.294;7.760;2022-08-19T12:26:22;99574.56;;;39.09;28.19
30021;BME280;16861;52.294;7.760;2022-08-19T12:28:48;99571.19;;;39.23;28.16
30021;BME280;16861;52.294;7.760;2022-08-19T12:31:15;99560.63;;;39.41;28.05
30021;BME280;16861;52.294;7.760;2022-08-19T12:33:43;99565.22;;;39.56;27.21
30021;BME280;16861;52.294;7.760;2022-08-19T12:36:11;99563.03;;;39.58;26.17
30021;BME280;16861;52.294;7.760;2022-08-19T12:38:38;99554.31;;;39.40;25.66
30021;BME280;16861;52.294;7.760;2022-08-19T12:41:08;99562.19;;;39.12;26.31
30021;BME280;16861;52.294;7.760;2022-08-19T12:43:36;99563.16;;;38.71;26.22
30021;BME280;16861;52.294;7.760;2022-08-19T12:46:05;99556.13;;;38.23;26.18
30021;BME280;16861;52.294;7.760;2022-08-19T12:48:35;99549.59;;;37.67;26.78
30021;BME280;16861;52.294;7.760;2022-08-19T12:51:10;99554.34;;;37.02;26.94
30021;BME280;16861;52.294;7.760;2022-08-19T12:53:38;99557.63;;;36.46;27.35
30021;BME280;16861;52.294;7.760;2022-08-19T12:56:06;99554.50;;;35.89;28.09
30021;BME280;16861;52.294;7.760;2022-08-19T12:58:38;99552.16;;;35.42;30.22
30021;BME280;16861;52.294;7.760;2022-08-19T13:01:14;99562.06;;;35.21;30.66
30021;BME280;16861;52.294;7.760;2022-08-19T13:03:45;99552.19;;;35.20;30.82
30021;BME280;16861;52.294;7.760;2022-08-19T13:06:12;99550.75;;;35.40;30.67
30021;BME280;16861;52.294;7.760;2022-08-19T13:08:39;99539.84;;;35.72;30.16
30021;BME280;16861;52.294;7.760;2022-08-19T13:11:10;99548.97;;;36.16;28.74
30021;BME280;16861;52.294;7.760;2022-08-19T13:13:40;99547.66;;;36.67;30.01
30021;BME280;16861;52.294;7.760;2022-08-19T13:16:09;99548.66;;;37.14;29.27
30021;BME280;16861;52.294;7.760;2022-08-19T13:18:37;99544.03;;;37.62;28.97
30021;BME280;16861;52.294;7.760;2022-08-19T13:21:05;99538.03;;;38.06;27.91
30021;BME280;16861;52.294;7.760;2022-08-19T13:23:34;99549.47;;;38.50;27.57
30021;BME280;16861;52.294;7.760;2022-08-19T13:26:03;99539.44;;;38.91;26.98
30021;BME280;16861;52.294;7.760;2022-08-19T13:28:31;99534.06;;;39.20;26.25
30021;BME280;16861;52.294;7.760;2022-08-19T13:31:19;99529.81;;;39.39;26.53
30021;BME280;16861;52.294;7.760;2022-08-19T13:34:04;99526.94;;;39.59;26.21